KBRO/BRO METAR and TAF weather

Enter ICAO airport designator
Station Type Date Time Source
KBRO METAR 2019/05/20 09:53 UTC NOAA

KBRO 200953Z AUTO 13011KT 10SM SCT013 BKN018 OVC027 28/26 A2980 RMK AO2 SLP091 T02780261 $


Station Type Date Time Source
KBRO Decoded METAR 2019/05/20 09:53 UTC NOAA

BROWNSVILLE/SOUTH PADRE IS, TX, United States (KBRO) 25-54N 97-25W 5M
May 20, 2019 - 05:53 AM EDT / 2019.05.20 0953 UTC
Wind: from the SE (130 degrees) at 13 MPH (11 KT):0
Visibility: 10 mile(s):0
Sky conditions: overcast
Temperature: 82.0 F (27.8 C)
Dew Point: 79.0 F (26.1 C)
Relative Humidity: 90%
Pressure (altimeter): 29.8 in. Hg (1009 hPa)
ob: KBRO 200953Z AUTO 13011KT 10SM SCT013 BKN018 OVC027 28/26 A2980 RMK AO2 SLP091 T02780261
cycle: 10

Station Type Date Time Source
KBRO TAF 2019/05/20 06:22 UTC NOAA

TAF KBRO 200520Z 2006/2106 12011KT P6SM OVC015
TEMPO 2008/2012 OVC008
FM201400 14015G22KT P6SM BKN025
FM201700 15022G29KT P6SM SCT040
FM210300 15018G26KT P6SM BKN015

Example: see airport list